Crescent, PA (15046)

10:49 PM EDT on July 20, 2017 (GMT -0400)
Bon Meade | | Change Station

Elev 15 ft 40.55 °N, 80.25 °W | Updated 10 minutes ago

Overcast
Overcast
73.9 °F
Feels Like 72 °F
N
0.0
Wind Variable Wind from South

Today
High -- | Low -- °F
--% Chance of Precip.
Yesterday
High -- | Low -- °F
Precip. -- in
Pressure 30.00 in
Visibility 10.0 miles
Clouds Scattered Clouds 13000 ft
Overcast 25000 ft
Heat Index 72 °F
Dew Point 71 °F
Humidity 91%
Rainfall 0.00 in
Snow Depth Not available.
6:07 AM 8:46 PM
Waning Crescent, 8% visible
METAR KPIT 210151Z 21006KT 10SM SCT130 OVC250 24/22 A3000 RMK AO2 SLP157 T02440222
Pressure 30.00 in
Visibility 10.0 miles
Clouds Scattered Clouds 13000 ft
Overcast 25000 ft
Heat Index 72 °F
Dew Point 71 °F
Humidity 91%
Rainfall 0.00 in
Snow Depth Not available.
6:07 AM 8:46 PM
Waning Crescent, 8% visible
METAR KPIT 210151Z 21006KT 10SM SCT130 OVC250 24/22 A3000 RMK AO2 SLP157 T02440222

Get Severe Weather Alerts

Thanks for signing up!

Be on the lookout for a verification email in your inbox.

You'll start receiving the daily forecast at 6 AM.

×

10-Day Weather Forecast

Almanac

Astronomy

Jul. 20, 2017 Rise Set
Actual Time
Civil Twilight
Nautical Twilight
Astronomical Twilight
Moon
Length of Visible Light
Length of Day
Tomorrow will be .
, % of the Moon is Illuminated

Today's Extremes

State Highs State Lows

Community

WunderPhotos

Category 6

Welcome to Category 6. This is the collective home for Weather Underground's featured writeups by Dr. Jeff Masters (right), Bob Henson (left), Chris Burt, and other regular contributors.

Nearby

Air Quality

  Air Quality AQ Index Pollutant
Not available.

Snow Depth

Station Depth Elevation

Earthquake Activity

City Distance Mag. Time & Date
Minimum magnitude displayed is 2.5.

Coastal Water Temperatures

Place Temperature

Stations

Nearby Weather Stations

Station Location Temp. Windchill Dew Point Humidity Wind Precip. Elev Updated Type
                   

Watches & Warnings

There are currently no watches in effect.